Time;durP1;ratioP1;P1;durP2;ratioP2;P2;SDS_P1;SDS_P2;PMS_P1;PMS_P2;Temp;Humidity;BMP_temperature;BMP_pressure;BME280_temperature;BME280_humidity;BME280_pressure;Samples;Min_cycle;Max_cycle;Signal;HPM_P1;HPM_P2
2023/08/10 00:01:34;;;;;;;9.85;3.08;;;14.80;99.90;;;;;;4961742;28;20474;-86
2023/08/10 00:04:00;;;;;;;8.65;2.90;;;14.80;99.90;;;;;;4977848;28;20106;-86
2023/08/10 00:06:25;;;;;;;5.07;1.30;;;14.80;99.90;;;;;;4977346;28;20049;-87
2023/08/10 00:08:51;;;;;;;9.32;2.65;;;14.80;99.90;;;;;;4977384;28;20134;-86
2023/08/10 00:11:17;;;;;;;2.47;1.10;;;14.80;99.90;;;;;;4977580;28;20065;-86
2023/08/10 00:13:43;;;;;;;10.07;2.75;;;14.80;99.90;;;;;;4977422;28;20423;-86
2023/08/10 00:16:09;;;;;;;9.15;2.35;;;14.80;99.90;;;;;;4977670;28;20042;-86
2023/08/10 00:18:34;;;;;;;5.63;1.60;;;14.80;99.90;;;;;;4977380;28;20054;-86
2023/08/10 00:21:01;;;;;;;7.47;1.63;;;14.80;99.90;;;;;;4961520;28;20048;-86
2023/08/10 00:23:27;;;;;;;6.38;1.75;;;14.70;99.90;;;;;;4977683;28;20065;-86
2023/08/10 00:25:53;;;;;;;7.47;1.45;;;14.70;99.90;;;;;;4976513;28;20583;-86
2023/08/10 00:28:18;;;;;;;8.23;2.78;;;14.70;99.90;;;;;;4976808;28;20042;-86
2023/08/10 00:30:44;;;;;;;6.68;1.73;;;14.70;99.90;;;;;;4976672;28;20483;-87
2023/08/10 00:33:09;;;;;;;9.10;2.50;;;14.70;99.90;;;;;;4961200;28;20078;-86
2023/08/10 00:35:38;;;;;;;6.60;1.67;;;14.70;99.90;;;;;;4977604;28;20035;-86
2023/08/10 00:38:04;;;;;;;10.23;2.60;;;14.70;99.90;;;;;;4977105;28;20034;-86
2023/08/10 00:40:30;;;;;;;6.78;1.98;;;14.80;99.90;;;;;;4960772;28;20415;-87
2023/08/10 00:42:58;;;;;;;6.45;1.65;;;14.70;99.90;;;;;;4961194;28;20034;-86
2023/08/10 00:45:24;;;;;;;7.88;2.67;;;14.70;99.90;;;;;;4976699;28;20041;-86
2023/08/10 00:47:52;;;;;;;6.68;1.85;;;14.70;99.90;;;;;;4977070;28;20089;-87
2023/08/10 00:50:17;;;;;;;7.22;1.83;;;14.70;99.90;;;;;;4976849;28;20122;-86
2023/08/10 00:52:44;;;;;;;10.57;2.60;;;14.70;99.90;;;;;;4961137;28;20121;-86
2023/08/10 00:55:10;;;;;;;8.35;2.50;;;14.70;99.90;;;;;;4976024;28;20039;-86
2023/08/10 00:57:35;;;;;;;11.75;2.97;;;14.70;99.90;;;;;;4975605;28;20080;-86
2023/08/10 01:00:02;;;;;;;7.07;1.45;;;14.80;99.90;;;;;;4976312;28;20034;-86
2023/08/10 01:02:28;;;;;;;6.03;1.30;;;14.70;99.90;;;;;;4958798;28;20053;-86
2023/08/10 01:04:54;;;;;;;6.10;1.63;;;14.60;99.90;;;;;;4975362;28;20042;-86
2023/08/10 01:07:52;;;;;;;8.18;2.53;;;14.60;99.90;;;;;;4976479;28;20096;-86
2023/08/10 01:10:18;;;;;;;9.02;2.65;;;14.70;99.90;;;;;;4959537;28;20042;-86
2023/08/10 01:12:55;;;;;;;9.90;2.70;;;14.70;99.90;;;;;;4975965;28;20038;-86
2023/08/10 01:15:39;;;;;;;6.75;1.55;;;14.70;99.90;;;;;;4960541;28;20495;-87
2023/08/10 01:18:11;;;;;;;9.18;1.60;;;14.70;99.90;;;;;;4959666;28;20081;-86
2023/08/10 01:20:39;;;;;;;9.68;2.85;;;14.60;99.90;;;;;;4960180;28;20046;-86
2023/08/10 01:23:32;;;;;;;10.48;2.92;;;14.70;99.90;;;;;;4976560;28;20081;-86
2023/08/10 01:25:59;;;;;;;5.30;1.55;;;14.70;99.90;;;;;;4975935;28;20045;-86
2023/08/10 01:28:26;;;;;;;9.93;3.03;;;14.60;99.90;;;;;;4975940;28;20046;-86
2023/08/10 01:30:52;;;;;;;6.97;1.92;;;14.60;99.90;;;;;;4976218;28;20049;-86
2023/08/10 01:33:18;;;;;;;8.25;2.55;;;14.60;99.90;;;;;;4960293;28;20072;-86
2023/08/10 01:35:44;;;;;;;6.40;1.80;;;14.60;99.90;;;;;;4975646;28;20038;-86
2023/08/10 01:38:10;;;;;;;5.05;1.77;;;14.60;99.90;;;;;;4975949;28;20042;-86
2023/08/10 01:40:36;;;;;;;6.82;1.38;;;14.50;99.90;;;;;;4976351;28;20123;-86
2023/08/10 01:43:02;;;;;;;6.93;1.67;;;14.50;99.90;;;;;;4976084;28;20038;-86
2023/08/10 01:45:29;;;;;;;5.95;1.98;;;14.50;99.90;;;;;;4959978;28;20058;-86
2023/08/10 01:48:01;;;;;;;5.15;1.52;;;14.50;99.90;;;;;;4975255;28;20039;-86
2023/08/10 01:50:31;;;;;;;11.43;2.97;;;14.50;99.90;;;;;;4993670;28;20109;-86
2023/08/10 01:53:05;;;;;;;11.15;2.92;;;14.50;99.90;;;;;;4975814;28;20042;-86
2023/08/10 01:55:31;;;;;;;5.03;1.70;;;14.60;99.90;;;;;;4960144;28;20038;-86
2023/08/10 01:57:57;;;;;;;4.88;1.83;;;14.50;99.90;;;;;;4958517;28;20045;-86
2023/08/10 02:00:23;;;;;;;8.43;2.58;;;14.50;99.90;;;;;;4959027;28;20038;-86
2023/08/10 02:02:48;;;;;;;8.75;3.08;;;14.50;99.90;;;;;;4959237;28;20049;-86
2023/08/10 02:05:14;;;;;;;8.85;1.88;;;14.60;99.90;;;;;;4959485;28;20038;-86
2023/08/10 02:07:41;;;;;;;6.50;1.90;;;14.50;99.90;;;;;;4959338;28;20046;-86
2023/08/10 02:10:09;;;;;;;7.68;1.95;;;14.40;99.90;;;;;;4975625;28;20047;-86
2023/08/10 02:12:35;;;;;;;10.40;3.50;;;14.40;99.90;;;;;;4975641;28;20046;-86
2023/08/10 02:15:01;;;;;;;7.00;1.90;;;14.50;99.90;;;;;;4959106;28;20034;-86
2023/08/10 02:17:29;;;;;;;9.90;3.40;;;14.50;99.90;;;;;;4959134;28;20101;-86
2023/08/10 02:19:56;;;;;;;9.55;3.00;;;14.50;99.90;;;;;;4993060;28;20054;-86
2023/08/10 02:22:22;;;;;;;9.13;3.45;;;14.50;99.90;;;;;;4975405;28;20034;-86
2023/08/10 02:24:48;;;;;;;5.15;2.13;;;14.50;99.90;;;;;;4959164;28;20492;-86
2023/08/10 02:27:13;;;;;;;11.73;3.75;;;14.50;99.90;;;;;;4974960;28;20045;-86
2023/08/10 02:29:39;;;;;;;5.60;1.83;;;14.50;99.90;;;;;;4959062;28;20519;-86
2023/08/10 02:32:05;;;;;;;9.38;3.08;;;14.40;99.90;;;;;;4974769;28;20038;-86
2023/08/10 02:34:30;;;;;;;8.25;2.45;;;14.40;99.90;;;;;;4974765;28;20077;-86
2023/08/10 02:36:56;;;;;;;8.23;2.22;;;14.40;99.90;;;;;;4974389;28;20105;-86
2023/08/10 02:39:21;;;;;;;9.90;3.40;;;14.30;99.90;;;;;;4975121;28;20418;-86
2023/08/10 02:41:47;;;;;;;10.00;3.83;;;14.40;99.90;;;;;;4975095;28;20096;-86
2023/08/10 02:44:13;;;;;;;6.97;1.90;;;14.40;99.90;;;;;;4975210;28;20054;-86
2023/08/10 02:46:38;;;;;;;8.32;3.28;;;14.30;99.90;;;;;;4975033;28;20038;-86
2023/08/10 02:49:04;;;;;;;7.40;2.40;;;14.30;99.90;;;;;;4975054;28;20039;-86
2023/08/10 02:51:30;;;;;;;8.05;1.90;;;14.30;99.90;;;;;;4975090;28;20042;-86
2023/08/10 02:53:55;;;;;;;9.48;3.88;;;14.20;99.90;;;;;;4975628;28;20035;-86
2023/08/10 02:56:21;;;;;;;6.50;2.20;;;14.20;99.90;;;;;;4975211;28;20038;-86
2023/08/10 02:58:46;;;;;;;4.68;1.75;;;14.20;99.90;;;;;;4958888;28;20407;-86
2023/08/10 03:01:12;;;;;;;8.73;3.85;;;14.20;99.90;;;;;;4978484;28;20045;-83
2023/08/10 03:03:38;;;;;;;9.05;1.98;;;14.20;99.90;;;;;;4985710;28;20159;-85
2023/08/10 03:06:03;;;;;;;8.93;2.83;;;14.20;99.90;;;;;;4987597;28;20046;-85
2023/08/10 03:08:29;;;;;;;7.82;2.17;;;14.10;99.90;;;;;;4975193;28;20045;-85
2023/08/10 03:10:55;;;;;;;7.57;1.98;;;14.10;99.90;;;;;;4959726;28;20129;-86
2023/08/10 03:13:20;;;;;;;7.82;2.58;;;14.10;99.90;;;;;;4959848;28;20038;-85
2023/08/10 03:15:46;;;;;;;6.53;2.60;;;14.00;99.90;;;;;;4959910;28;20043;-85
2023/08/10 03:18:11;;;;;;;10.50;3.40;;;14.00;99.90;;;;;;4959700;28;20129;-86
2023/08/10 03:20:37;;;;;;;11.32;3.63;;;14.10;99.90;;;;;;4959443;28;20545;-85
2023/08/10 03:23:03;;;;;;;8.15;2.28;;;14.20;99.90;;;;;;4975260;28;20038;-85
2023/08/10 03:25:29;;;;;;;5.63;2.58;;;14.10;99.90;;;;;;4975058;28;20407;-85
2023/08/10 03:27:55;;;;;;;8.77;3.67;;;14.10;99.90;;;;;;4978321;28;20046;-85
2023/08/10 03:30:20;;;;;;;5.35;2.00;;;14.10;99.90;;;;;;4961951;28;20081;-86
2023/08/10 03:32:46;;;;;;;8.82;2.45;;;14.20;99.90;;;;;;4977523;28;20039;-86
2023/08/10 03:35:13;;;;;;;9.65;3.60;;;14.10;99.90;;;;;;4977376;28;20053;-86
2023/08/10 03:37:38;;;;;;;11.32;3.97;;;14.20;99.90;;;;;;4977198;28;20117;-85
2023/08/10 03:40:06;;;;;;;8.43;3.17;;;14.20;99.90;;;;;;4977617;28;20176;-85
2023/08/10 03:42:31;;;;;;;7.28;2.75;;;14.20;99.90;;;;;;4977314;28;20523;-85
2023/08/10 03:44:58;;;;;;;9.48;3.60;;;14.20;99.90;;;;;;4961343;28;20081;-85
2023/08/10 03:47:23;;;;;;;10.88;4.47;;;14.20;99.90;;;;;;4960996;28;20053;-85
2023/08/10 03:49:49;;;;;;;7.13;2.75;;;14.30;99.90;;;;;;4977023;28;20504;-85
2023/08/10 03:52:15;;;;;;;11.52;4.50;;;14.20;99.90;;;;;;4962220;28;20042;-85
2023/08/10 03:54:40;;;;;;;11.45;4.00;;;14.20;99.90;;;;;;4977631;28;20631;-85
2023/08/10 03:57:06;;;;;;;9.27;2.90;;;14.30;99.90;;;;;;4977804;28;20172;-85
2023/08/10 03:59:32;;;;;;;8.52;2.38;;;14.30;99.90;;;;;;4978148;28;20042;-85
2023/08/10 04:01:58;;;;;;;6.40;2.53;;;14.10;99.90;;;;;;4977865;28;20053;-85
2023/08/10 04:04:23;;;;;;;10.95;4.28;;;14.20;99.90;;;;;;4962050;28;20053;-85
2023/08/10 04:06:49;;;;;;;12.07;3.97;;;14.20;99.90;;;;;;4977970;28;20039;-85
2023/08/10 04:09:15;;;;;;;7.15;2.17;;;14.30;99.90;;;;;;4977520;28;20496;-85
2023/08/10 04:11:40;;;;;;;5.93;2.67;;;14.20;99.90;;;;;;4978095;28;20084;-85
2023/08/10 04:14:06;;;;;;;8.20;2.80;;;14.20;99.90;;;;;;4961738;28;20582;-85
2023/08/10 04:16:32;;;;;;;6.40;2.50;;;14.20;99.90;;;;;;4977846;28;20053;-84
2023/08/10 04:18:57;;;;;;;7.47;2.67;;;14.20;99.90;;;;;;4977520;28;20496;-85
2023/08/10 04:21:23;;;;;;;9.40;3.83;;;14.20;99.90;;;;;;4961681;28;20049;-85
2023/08/10 04:23:49;;;;;;;10.55;4.03;;;14.20;99.90;;;;;;4977585;28;20038;-85
2023/08/10 04:26:14;;;;;;;7.18;2.80;;;14.30;99.90;;;;;;4977556;28;20045;-85
2023/08/10 04:28:41;;;;;;;9.55;4.45;;;14.20;99.90;;;;;;4961261;28;20112;-85
2023/08/10 04:31:08;;;;;;;12.98;4.68;;;14.30;99.90;;;;;;4976668;28;20038;-85
2023/08/10 04:33:33;;;;;;;7.68;2.53;;;14.30;99.90;;;;;;4977144;28;20084;-85
2023/08/10 04:35:59;;;;;;;11.48;4.20;;;14.30;99.90;;;;;;4961095;28;20070;-85
2023/08/10 04:38:25;;;;;;;9.77;4.47;;;14.30;99.90;;;;;;4976861;28;20077;-85
2023/08/10 04:40:50;;;;;;;7.60;2.97;;;14.40;99.90;;;;;;4977270;28;20046;-86
2023/08/10 04:43:16;;;;;;;6.93;2.50;;;14.40;99.90;;;;;;4960694;28;20046;-86
2023/08/10 04:45:42;;;;;;;6.80;2.40;;;14.30;99.90;;;;;;4976890;28;20034;-86
2023/08/10 04:48:10;;;;;;;12.10;5.05;;;14.30;99.90;;;;;;4960226;28;20119;-86
2023/08/10 04:50:36;;;;;;;8.02;3.08;;;14.30;99.90;;;;;;4976673;28;20038;-86
2023/08/10 04:53:02;;;;;;;10.45;5.07;;;14.30;99.90;;;;;;4960947;28;20130;-86
2023/08/10 04:55:28;;;;;;;12.60;5.50;;;14.40;99.90;;;;;;4963176;28;20117;-86
2023/08/10 04:57:53;;;;;;;13.63;5.72;;;14.40;99.90;;;;;;4955655;28;20118;-86
2023/08/10 05:00:19;;;;;;;10.75;5.57;;;14.50;99.90;;;;;;4956390;28;20047;-86
2023/08/10 05:02:45;;;;;;;8.20;2.83;;;14.50;99.90;;;;;;4956636;28;20045;-87
2023/08/10 05:05:11;;;;;;;9.07;3.40;;;14.50;99.90;;;;;;4956539;28;20150;-86
2023/08/10 05:07:37;;;;;;;8.68;3.42;;;14.40;99.90;;;;;;4956310;28;20039;-86
2023/08/10 05:10:08;;;;;;;8.93;3.67;;;14.40;99.90;;;;;;4940337;28;20046;-86
2023/08/10 05:12:35;;;;;;;7.72;3.40;;;14.40;99.90;;;;;;4956065;28;20085;-86
2023/08/10 05:15:01;;;;;;;10.43;5.47;;;14.40;99.90;;;;;;4956187;28;20412;-86
2023/08/10 05:17:27;;;;;;;10.40;3.70;;;14.50;99.90;;;;;;4955807;28;20511;-86
2023/08/10 05:19:52;;;;;;;13.23;5.70;;;14.50;99.90;;;;;;4940135;28;20479;-86
2023/08/10 05:22:18;;;;;;;7.40;2.70;;;14.60;99.90;;;;;;4956095;28;20050;-86
2023/08/10 05:24:44;;;;;;;10.32;3.75;;;14.60;99.90;;;;;;4955919;28;20043;-86
2023/08/10 05:27:09;;;;;;;12.80;5.97;;;14.60;99.90;;;;;;4955955;28;20058;-86
2023/08/10 05:29:35;;;;;;;7.85;3.08;;;14.70;99.90;;;;;;4955710;28;20479;-86
2023/08/10 05:32:00;;;;;;;12.57;5.18;;;14.60;99.90;;;;;;4954596;28;20043;-86
2023/08/10 05:34:26;;;;;;;10.68;5.20;;;14.70;99.90;;;;;;4955947;28;20388;-86
2023/08/10 05:36:52;;;;;;;9.55;3.72;;;14.70;99.90;;;;;;4939175;28;20047;-86
2023/08/10 05:39:17;;;;;;;7.35;3.08;;;14.70;99.90;;;;;;4955961;28;20420;-86
2023/08/10 05:41:43;;;;;;;10.85;5.30;;;14.70;99.90;;;;;;4939995;28;20046;-85
2023/08/10 05:44:09;;;;;;;7.57;2.80;;;14.80;99.90;;;;;;4939616;28;20113;-86
2023/08/10 05:46:35;;;;;;;10.85;5.60;;;14.80;99.90;;;;;;4939052;28;20042;-86
2023/08/10 05:49:00;;;;;;;10.73;5.38;;;14.90;99.90;;;;;;4938552;28;20039;-86
2023/08/10 05:51:26;;;;;;;7.95;2.83;;;14.90;99.90;;;;;;4939993;28;20464;-86
2023/08/10 05:53:51;;;;;;;7.13;2.85;;;14.90;99.90;;;;;;4955885;28;20504;-86
2023/08/10 05:56:17;;;;;;;13.40;5.32;;;14.80;99.90;;;;;;4939259;28;20042;-86
2023/08/10 05:58:42;;;;;;;10.70;3.83;;;14.90;99.90;;;;;;4955742;28;20078;-86
2023/08/10 06:01:08;;;;;;;11.27;5.22;;;14.90;99.90;;;;;;4954985;28;20508;-86
2023/08/10 06:03:34;;;;;;;9.73;3.67;;;15.00;99.90;;;;;;4955264;28;20065;-86
2023/08/10 06:06:00;;;;;;;7.85;3.60;;;15.00;99.90;;;;;;4956020;28;20047;-86
2023/08/10 06:08:26;;;;;;;11.63;5.10;;;14.90;99.90;;;;;;4955455;28;20046;-86
2023/08/10 06:10:52;;;;;;;10.85;5.30;;;15.00;99.90;;;;;;4940122;28;20125;-86
2023/08/10 06:13:18;;;;;;;10.80;3.72;;;15.10;99.90;;;;;;4955843;28;20528;-85
2023/08/10 06:15:47;;;;;;;8.80;3.47;;;15.10;99.90;;;;;;4939236;28;20090;-86
2023/08/10 06:18:13;;;;;;;8.60;3.03;;;15.10;99.90;;;;;;4955721;28;20031;-86
2023/08/10 06:20:39;;;;;;;11.32;6.28;;;15.10;99.90;;;;;;4939262;28;20492;-85
2023/08/10 06:23:05;;;;;;;10.68;4.10;;;15.20;99.90;;;;;;4954239;28;20150;-85
2023/08/10 06:25:31;;;;;;;11.57;5.78;;;15.20;99.90;;;;;;4954713;28;20046;-85
2023/08/10 06:28:00;;;;;;;12.82;6.15;;;15.40;99.90;;;;;;4937783;28;20042;-86
2023/08/10 06:30:26;;;;;;;10.60;5.70;;;15.50;99.90;;;;;;4937320;28;20043;-86
2023/08/10 06:32:51;;;;;;;10.35;3.72;;;15.60;99.90;;;;;;4954054;28;20034;-86
2023/08/10 06:35:21;;;;;;;11.50;4.78;;;15.60;99.90;;;;;;4955128;28;20035;-86
2023/08/10 06:37:48;;;;;;;10.77;4.72;;;15.70;99.90;;;;;;4966532;28;20696;-87
2023/08/10 06:40:15;;;;;;;10.30;3.22;;;15.80;99.90;;;;;;4959090;28;20054;-87
2023/08/10 06:42:41;;;;;;;12.68;3.25;;;16.00;99.90;;;;;;4974527;28;20515;-87
2023/08/10 06:45:06;;;;;;;10.95;3.05;;;16.00;99.90;;;;;;4974706;28;20162;-87
2023/08/10 06:47:32;;;;;;;9.32;3.83;;;16.10;99.90;;;;;;4974274;28;20138;-87
2023/08/10 06:49:58;;;;;;;12.52;3.92;;;16.10;99.90;;;;;;4973859;28;20042;-87
2023/08/10 06:52:24;;;;;;;12.27;4.18;;;16.20;99.90;;;;;;4958281;28;20045;-87
2023/08/10 06:54:52;;;;;;;10.15;4.13;;;16.30;99.90;;;;;;4974179;28;20046;-87
2023/08/10 06:57:19;;;;;;;8.93;2.33;;;16.30;99.90;;;;;;4974202;28;20479;-87
2023/08/10 06:59:45;;;;;;;9.05;3.53;;;16.30;99.90;;;;;;4958554;28;20030;-87
2023/08/10 07:02:10;;;;;;;9.63;2.90;;;16.40;99.90;;;;;;4977614;28;20566;-87
2023/08/10 07:04:36;;;;;;;10.57;3.58;;;16.50;99.90;;;;;;4978772;28;20474;-87
2023/08/10 07:07:01;;;;;;;12.18;4.32;;;16.50;99.90;;;;;;4978085;28;20046;-87
2023/08/10 07:09:27;;;;;;;11.68;4.28;;;16.60;99.90;;;;;;4962011;28;20523;-87
2023/08/10 07:11:53;;;;;;;11.43;2.38;;;16.70;99.90;;;;;;4962089;28;20038;-87
2023/08/10 07:14:19;;;;;;;9.15;3.20;;;16.70;99.90;;;;;;4944263;28;20031;-87
2023/08/10 07:16:45;;;;;;;8.77;3.10;;;16.70;99.90;;;;;;4974950;28;20039;-87
2023/08/10 07:19:11;;;;;;;7.78;2.58;;;16.80;99.90;;;;;;4941819;28;20047;-87
2023/08/10 07:21:36;;;;;;;9.40;1.88;;;16.80;99.90;;;;;;4942520;28;20077;-87
2023/08/10 07:24:05;;;;;;;9.80;3.63;;;16.80;99.90;;;;;;4975987;28;20042;-87
2023/08/10 07:26:31;;;;;;;9.02;3.30;;;16.90;99.90;;;;;;4941568;28;20062;-87
2023/08/10 07:28:57;;;;;;;6.03;2.33;;;16.90;99.90;;;;;;4941638;28;20042;-87
2023/08/10 07:31:28;;;;;;;10.32;3.60;;;17.00;99.90;;;;;;4941305;28;20468;-87
2023/08/10 07:33:54;;;;;;;8.82;2.53;;;17.00;99.90;;;;;;4957983;28;20045;-87
2023/08/10 07:36:20;;;;;;;12.65;2.75;;;17.10;99.90;;;;;;4956443;28;20043;-87
2023/08/10 07:38:46;;;;;;;8.98;2.45;;;17.10;99.90;;;;;;4942436;28;20145;-87
2023/08/10 07:41:11;;;;;;;9.50;3.38;;;17.10;99.90;;;;;;4957257;28;20064;-86
2023/08/10 07:43:37;;;;;;;8.85;2.40;;;17.10;99.90;;;;;;4941475;28;20046;-87
2023/08/10 07:46:02;;;;;;;8.52;2.42;;;17.10;99.90;;;;;;4958387;28;20493;-87
2023/08/10 07:48:28;;;;;;;10.75;2.97;;;17.20;99.90;;;;;;4941767;28;20096;-87
2023/08/10 07:50:54;;;;;;;8.27;3.05;;;17.20;99.90;;;;;;4957548;28;20121;-87
2023/08/10 07:53:20;;;;;;;9.77;3.30;;;17.30;99.90;;;;;;4942103;28;20074;-87
2023/08/10 07:55:46;;;;;;;12.00;3.20;;;17.50;99.90;;;;;;4941504;28;20539;-87
2023/08/10 07:58:14;;;;;;;8.32;3.22;;;17.50;99.90;;;;;;4957154;28;20042;-87
2023/08/10 08:00:41;;;;;;;9.30;3.03;;;17.60;99.90;;;;;;4941755;28;20043;-87
2023/08/10 08:03:08;;;;;;;7.95;2.15;;;17.50;99.90;;;;;;4957031;28;20504;-86
2023/08/10 08:05:37;;;;;;;10.38;3.00;;;17.60;99.90;;;;;;4941734;28;20038;-87
2023/08/10 08:08:04;;;;;;;8.48;2.88;;;17.70;99.90;;;;;;4941583;28;20051;-87
2023/08/10 08:10:30;;;;;;;8.57;2.35;;;17.80;99.90;;;;;;4941446;28;20408;-87
2023/08/10 08:12:56;;;;;;;9.38;1.95;;;17.80;99.90;;;;;;4941414;28;20071;-87
2023/08/10 08:15:22;;;;;;;8.80;1.80;;;17.90;99.90;;;;;;4941956;28;20043;-87
2023/08/10 08:18:25;;;;;;;7.55;1.65;;;18.00;99.90;;;;;;4941907;28;20043;-87
2023/08/10 08:20:50;;;;;;;;;;;18.00;99.90;;;;;;4958763;28;20050;-88
2023/08/10 08:23:16;;;;;;;6.93;2.13;;;18.00;99.90;;;;;;4957698;28;20001;-87
2023/08/10 08:25:42;;;;;;;7.30;2.60;;;18.00;99.90;;;;;;4957977;28;20046;-87
2023/08/10 08:28:07;;;;;;;10.07;2.25;;;18.00;99.90;;;;;;4956979;28;20085;-87
2023/08/10 08:30:33;;;;;;;10.10;2.85;;;18.00;99.90;;;;;;4941772;28;20039;-88
2023/08/10 08:32:58;;;;;;;6.82;2.42;;;18.00;99.90;;;;;;4941399;28;20101;-87
2023/08/10 08:35:25;;;;;;;11.18;2.90;;;18.00;99.90;;;;;;4941132;28;20046;-87
2023/08/10 08:37:51;;;;;;;10.15;3.10;;;18.10;99.90;;;;;;4956495;28;20118;-87
2023/08/10 08:40:17;;;;;;;7.75;1.95;;;18.20;99.90;;;;;;4974196;28;20048;-87
2023/08/10 08:42:44;;;;;;;8.07;2.40;;;18.20;99.90;;;;;;4939576;28;20057;-87
2023/08/10 08:45:11;;;;;;;8.93;2.50;;;18.20;99.90;;;;;;4955669;28;20093;-87
2023/08/10 08:47:37;;;;;;;12.30;2.83;;;18.20;99.90;;;;;;4940451;28;20046;-87
2023/08/10 08:50:03;;;;;;;10.18;2.58;;;18.20;99.90;;;;;;4955729;28;20510;-87
2023/08/10 08:52:29;;;;;;;8.45;2.40;;;18.20;99.90;;;;;;4956689;28;20110;-87
2023/08/10 08:54:57;;;;;;;8.30;2.40;;;18.20;99.90;;;;;;4956541;28;20042;-87
2023/08/10 08:57:23;;;;;;;8.35;2.13;;;18.20;99.90;;;;;;4956848;28;20419;-88
2023/08/10 08:59:48;;;;;;;8.40;2.17;;;18.10;99.90;;;;;;4941149;28;20038;-87
2023/08/10 09:02:14;;;;;;;10.20;2.20;;;18.10;99.90;;;;;;4957445;28;20122;-87
2023/08/10 09:04:40;;;;;;;6.25;1.77;;;18.20;99.90;;;;;;4957115;28;20500;-87
2023/08/10 09:07:06;;;;;;;7.78;2.40;;;18.20;99.90;;;;;;4956142;28;20053;-87
2023/08/10 09:09:34;;;;;;;11.75;1.77;;;18.10;99.90;;;;;;4939954;28;20086;-88
2023/08/10 09:12:36;;;;;;;8.15;2.13;;;18.10;99.90;;;;;;4955538;28;20046;-87
2023/08/10 09:15:08;;;;;;;6.32;1.42;;;18.10;99.90;;;;;;4956645;28;20459;-87
2023/08/10 09:17:36;;;;;;;7.95;2.03;;;18.00;99.90;;;;;;4939468;28;20488;-87
2023/08/10 09:20:05;;;;;;;8.35;1.90;;;18.00;99.90;;;;;;4955929;28;20047;-87
2023/08/10 09:22:35;;;;;;;8.23;2.10;;;18.10;99.90;;;;;;4939148;28;20086;-87
2023/08/10 09:25:02;;;;;;;8.73;1.92;;;18.10;99.90;;;;;;4954409;28;20092;-87
2023/08/10 09:27:28;;;;;;;7.57;2.10;;;18.10;99.90;;;;;;4955202;28;20053;-87
2023/08/10 09:30:01;;;;;;;14.18;2.38;;;18.10;99.90;;;;;;4954544;28;20042;-87
2023/08/10 09:32:31;;;;;;;8.85;2.25;;;18.10;99.90;;;;;;4955125;28;20575;-87
2023/08/10 09:34:57;;;;;;;7.07;1.98;;;18.10;99.90;;;;;;4938564;28;20105;-87
2023/08/10 09:37:34;;;;;;;9.13;2.35;;;18.10;99.90;;;;;;4972625;28;20089;-87
2023/08/10 09:40:30;;;;;;;9.05;2.40;;;18.10;99.90;;;;;;4956861;28;20054;-87
2023/08/10 09:49:03;;;;;;;8.20;2.72;;;18.10;99.90;;;;;;4927106;29;20137;-87
2023/08/10 09:51:46;;;;;;;10.25;2.95;;;18.10;99.90;;;;;;4951841;28;20046;-87
2023/08/10 09:54:33;;;;;;;9.80;2.60;;;18.10;99.90;;;;;;4955881;28;20035;-88
2023/08/10 10:08:03;;;;;;;11.75;2.75;;;18.10;99.90;;;;;;5634955;22;14290553;-87
2023/08/10 10:10:51;;;;;;;9.10;2.35;;;18.00;99.90;;;;;;6197842;23;20059;-86
2023/08/10 10:13:19;;;;;;;8.85;1.73;;;18.10;99.90;;;;;;6171701;23;20033;-86
2023/08/10 10:15:46;;;;;;;8.40;2.67;;;18.00;99.90;;;;;;6171346;23;20038;-86
2023/08/10 10:18:13;;;;;;;9.30;2.50;;;18.10;99.90;;;;;;6180212;23;20024;-86
2023/08/10 10:20:41;;;;;;;7.35;2.28;;;18.20;99.90;;;;;;6141298;23;20058;-86
2023/08/10 10:23:20;;;;;;;8.93;2.30;;;18.20;99.90;;;;;;6140574;23;20009;-86
2023/08/10 10:26:01;;;;;;;7.50;2.00;;;18.20;99.90;;;;;;6140409;23;20013;-87
2023/08/10 10:28:31;;;;;;;8.82;2.40;;;18.30;99.90;;;;;;6164995;23;20474;-87
2023/08/10 10:31:08;;;;;;;7.68;2.22;;;18.30;99.90;;;;;;6165175;23;20009;-87
2023/08/10 10:33:35;;;;;;;9.07;2.42;;;18.40;99.90;;;;;;6140096;23;20017;-88
2023/08/10 10:36:11;;;;;;;7.60;1.77;;;18.40;99.90;;;;;;6138674;23;20020;-87
2023/08/10 10:38:39;;;;;;;6.63;2.08;;;18.50;99.90;;;;;;6163171;23;20024;-87
2023/08/10 10:41:09;;;;;;;9.38;2.38;;;18.50;99.90;;;;;;6165909;23;20004;-87
2023/08/10 10:43:34;;;;;;;7.30;1.88;;;18.60;99.90;;;;;;6165055;23;20156;-87
2023/08/10 10:46:00;;;;;;;6.78;2.03;;;18.60;99.90;;;;;;6140454;23;20423;-87
2023/08/10 10:48:34;;;;;;;7.85;2.05;;;18.70;99.90;;;;;;6139870;23;20013;-87
2023/08/10 10:51:03;;;;;;;9.45;2.33;;;18.70;99.90;;;;;;6164536;23;20013;-87
2023/08/10 10:53:28;;;;;;;8.27;2.20;;;18.80;99.90;;;;;;6164523;23;20013;-88
2023/08/10 10:55:54;;;;;;;7.28;2.30;;;18.80;99.90;;;;;;6163981;23;20398;-87
2023/08/10 10:58:20;;;;;;;7.80;2.55;;;18.80;99.90;;;;;;6164001;23;20024;-87
2023/08/10 11:00:47;;;;;;;7.75;2.20;;;18.80;99.90;;;;;;6165589;23;20044;-87
2023/08/10 11:03:13;;;;;;;9.10;2.72;;;18.80;99.90;;;;;;6164390;23;20032;-87
2023/08/10 11:05:39;;;;;;;8.23;2.53;;;18.80;99.90;;;;;;6140314;23;20017;-87
2023/08/10 11:08:06;;;;;;;11.27;2.95;;;18.80;99.90;;;;;;6141649;23;20024;-87
2023/08/10 11:10:35;;;;;;;8.63;2.78;;;18.80;99.90;;;;;;6187806;23;20016;-87
2023/08/10 11:13:09;;;;;;;8.07;2.65;;;18.80;99.90;;;;;;6187870;23;20016;-87
2023/08/10 11:15:36;;;;;;;8.82;2.55;;;18.80;99.90;;;;;;6213346;23;20012;-87
2023/08/10 11:18:11;;;;;;;9.10;2.53;;;18.90;99.90;;;;;;6187943;23;20446;-87
2023/08/10 11:20:42;;;;;;;8.43;2.10;;;18.90;99.90;;;;;;6188979;23;20023;-87
2023/08/10 11:23:08;;;;;;;7.82;2.20;;;18.90;99.90;;;;;;6212671;23;20385;-87
2023/08/10 11:25:34;;;;;;;8.57;2.65;;;19.00;99.90;;;;;;6187591;23;20087;-87
2023/08/10 11:27:59;;;;;;;8.05;2.70;;;19.10;99.90;;;;;;6195822;23;20032;-84
2023/08/10 11:30:26;;;;;;;8.57;2.30;;;19.10;99.90;;;;;;6203015;23;20020;-87
2023/08/10 11:32:53;;;;;;;7.57;2.40;;;19.20;99.90;;;;;;6204230;23;20035;-87
2023/08/10 11:35:24;;;;;;;7.72;2.40;;;19.20;99.90;;;;;;6211575;22;20031;-88
2023/08/10 11:37:50;;;;;;;8.95;2.20;;;19.30;99.90;;;;;;6219806;22;20013;-87
2023/08/10 11:40:20;;;;;;;7.18;2.40;;;19.40;99.90;;;;;;6192855;23;20063;-88
2023/08/10 11:42:52;;;;;;;9.05;2.88;;;19.60;99.90;;;;;;6203946;22;20016;-87
2023/08/10 11:45:21;;;;;;;9.63;2.67;;;19.60;99.90;;;;;;6226308;23;20055;-88
2023/08/10 11:48:00;;;;;;;8.85;2.60;;;19.60;99.90;;;;;;6187670;23;20017;-87
2023/08/10 11:50:31;;;;;;;10.00;3.08;;;19.70;99.90;;;;;;6187674;23;20062;-88
2023/08/10 11:53:07;;;;;;;8.38;2.75;;;19.70;99.90;;;;;;6187290;23;20012;-88
2023/08/10 11:55:33;;;;;;;7.95;2.60;;;19.80;99.90;;;;;;6187440;23;20513;-88
2023/08/10 11:58:00;;;;;;;8.05;2.50;;;19.90;99.90;;;;;;6184801;23;20084;-88
2023/08/10 12:00:30;;;;;;;7.53;2.30;;;19.90;99.90;;;;;;6211272;23;20016;-88
2023/08/10 12:03:00;;;;;;;8.23;2.38;;;19.90;99.90;;;;;;6185789;23;20020;-88
2023/08/10 12:05:42;;;;;;;9.75;2.70;;;19.90;99.90;;;;;;6185333;23;20019;-88
2023/08/10 12:08:15;;;;;;;9.77;2.47;;;20.00;99.90;;;;;;6185393;23;20016;-88
2023/08/10 12:10:44;;;;;;;8.77;2.22;;;20.00;99.90;;;;;;6186018;23;20016;-88
2023/08/10 12:13:14;;;;;;;11.07;2.72;;;20.00;99.90;;;;;;6188015;23;20008;-88
2023/08/10 12:15:50;;;;;;;8.63;2.72;;;20.00;99.90;;;;;;6187609;23;20078;-88
2023/08/10 12:18:18;;;;;;;9.63;3.30;;;20.10;99.90;;;;;;6187333;23;20362;-88
2023/08/10 12:20:49;;;;;;;9.20;3.10;;;20.10;99.90;;;;;;6212889;23;20019;-88
2023/08/10 12:23:16;;;;;;;8.95;3.20;;;20.20;99.90;;;;;;6187428;23;20015;-88
2023/08/10 12:25:45;;;;;;;8.48;3.25;;;20.20;99.90;;;;;;6212302;23;20072;-88
2023/08/10 12:28:12;;;;;;;9.93;3.40;;;20.20;99.90;;;;;;6214333;23;20083;-88
2023/08/10 12:30:38;;;;;;;8.82;3.10;;;20.20;99.90;;;;;;6186735;23;20039;-89
2023/08/10 12:33:06;;;;;;;10.38;3.22;;;20.30;99.90;;;;;;6187720;23;20012;-88
2023/08/10 12:35:32;;;;;;;10.25;3.35;;;20.30;99.90;;;;;;6187363;23;20024;-88
2023/08/10 12:37:58;;;;;;;11.55;3.70;;;20.40;99.90;;;;;;6212036;23;20519;-88
2023/08/10 12:40:23;;;;;;;8.35;3.17;;;20.40;99.90;;;;;;6212869;23;20458;-88
2023/08/10 12:42:50;;;;;;;7.53;2.95;;;20.50;99.90;;;;;;6186928;23;20008;-88
2023/08/10 12:45:17;;;;;;;7.78;2.95;;;20.70;99.90;;;;;;6211971;23;20052;-88
2023/08/10 12:47:43;;;;;;;8.52;3.10;;;20.80;99.90;;;;;;6213642;23;20063;-88
2023/08/10 12:50:11;;;;;;;9.23;3.53;;;21.00;99.90;;;;;;6212221;23;20008;-88
2023/08/10 12:52:37;;;;;;;8.68;3.20;;;21.00;99.90;;;;;;6212330;23;20452;-88
2023/08/10 12:55:03;;;;;;;9.35;3.50;;;21.00;99.90;;;;;;6185474;23;20040;-88
2023/08/10 12:57:29;;;;;;;8.65;3.50;;;21.00;99.90;;;;;;6185491;23;20036;-88
2023/08/10 12:59:58;;;;;;;8.77;3.40;;;21.00;99.10;;;;;;6187779;23;20075;-89
2023/08/10 13:02:24;;;;;;;8.45;3.30;;;21.00;99.30;;;;;;6187304;23;20013;-88
2023/08/10 13:04:49;;;;;;;10.45;4.05;;;21.00;99.90;;;;;;6187335;23;20009;-88